Airfield :
LOGIN :

Register | Disclaimer

   EN    FR    IT 

 










Legend :    VFR   Marginal VFR   IFR   Intensive IFR   Very Intensive IFR
Visi :
Ceiling :
>= 8 km
>= 3000ft
5 to 8 km
1000 to 3000 ft
1500m to 5 km
500 to 1000 ft
800 to 1500m
200 to 500 ft
< 800m
< 200 ft
Symbols :   Thunderstorms  Fog  Heavy snow  Heavy precipitations  Wind > 20 kt
SIGMETs :     Misc.  Thunderstorms  Icing  Turbulence  Mountain Waves  Volcanic Ashes






- Airport Elevation : 436 ft
- IATA code : BTS


LZIB - Bratislava

CURRENT METAR :
  • 141330Z 29013KT CAVOK 28/07 Q1017 NOSIG

EXPIRED METARs :
  • 141300Z 29014KT CAVOK 28/07 Q1018 NOSIG
  • 141230Z 29016KT CAVOK 28/08 Q1018 NOSIG
  • 141200Z 29009KT 260V340 CAVOK 28/10 Q1019 NOSIG
  • 141130Z 28009KT 240V310 CAVOK 27/09 Q1019 NOSIG
  • 141100Z 27009KT 240V310 CAVOK 26/11 Q1019 NOSIG
  • 141030Z 28008KT CAVOK 26/11 Q1020 NOSIG
  • 141000Z 29010KT CAVOK 25/10 Q1020 NOSIG
  • 140930Z 30010KT 260V330 CAVOK 25/10 Q1020 NOSIG
  • 140900Z 23004KT 190V270 CAVOK 22/12 Q1020 NOSIG

TAF TAF LZIB
Valid from the 14 at 12:00 until the 15 at 12:00 UTC


141115Z 1412/1512 28010KT CAVOK
TEMPO 1412/1416 28015G25KT
BECMG 1418/1420 VRB02KT
BECMG 1508/1510 32012KT 9999 BKN033
PROB40
TEMPO 1510/1512 34015G25KT 5000 TSRA BKN020 SCT033CB



MET'MAP, your aeronautical weather chart ! - Copyright ORBIFLY December 2007 - Disclaimer

ORBIFLY MET'MAP TEAM :

Programming & Development : Alexandra Zaïnal
Original concept : Baudouin d'Aumeries
Technical & hardware support : Manuel Goepfert
Assistance : Marc-Olivier Méhu




SOURCES & CREDITS :

   NOAA